createdAt,value
2022-11-20T00:01:38.976Z,3.40
2022-11-20T00:04:07.665Z,3.53
2022-11-20T00:06:36.294Z,3.70
2022-11-20T00:09:06.185Z,4.90
2022-11-20T00:11:36.164Z,4.23
2022-11-20T00:14:04.845Z,5.37
2022-11-20T00:16:34.713Z,4.60
2022-11-20T00:19:03.371Z,3.93
2022-11-20T00:21:32.323Z,3.63
2022-11-20T00:24:01.313Z,4.30
2022-11-20T00:26:30.200Z,3.80
2022-11-20T00:29:01.497Z,3.90
2022-11-20T00:31:30.813Z,4.33
2022-11-20T00:33:59.492Z,3.73
2022-11-20T00:36:29.435Z,3.93
2022-11-20T00:38:59.350Z,3.53
2022-11-20T00:41:28.969Z,3.37
2022-11-20T00:43:58.243Z,2.90
2022-11-20T00:46:28.987Z,3.03
2022-11-20T00:48:58.046Z,3.00
2022-11-20T00:51:28.111Z,3.47
2022-11-20T00:53:57.535Z,3.13
2022-11-20T00:56:26.246Z,3.60
2022-11-20T00:58:55.102Z,3.43
2022-11-20T01:01:26.076Z,3.63
2022-11-20T01:03:58.419Z,4.47
2022-11-20T01:06:28.324Z,3.30
2022-11-20T01:08:58.759Z,3.50
2022-11-20T01:11:28.892Z,3.10
2022-11-20T01:13:59.252Z,3.50
2022-11-20T01:16:29.684Z,3.27
2022-11-20T01:19:01.143Z,3.40
2022-11-20T01:21:32.262Z,3.63
2022-11-20T01:24:01.346Z,2.83
2022-11-20T01:26:32.235Z,2.87
2022-11-20T01:29:01.475Z,2.60
2022-11-20T01:31:31.720Z,2.73
2022-11-20T01:34:03.058Z,2.90
2022-11-20T01:36:33.335Z,2.50
2022-11-20T01:39:06.503Z,2.00
2022-11-20T01:41:53.850Z,1.60
2022-11-20T01:44:24.916Z,1.67
2022-11-20T01:46:57.634Z,1.80
2022-11-20T01:49:31.832Z,1.60
2022-11-20T01:52:02.954Z,1.87
2022-11-20T01:54:37.346Z,2.03
2022-11-20T01:57:08.594Z,2.03
2022-11-20T01:59:39.867Z,1.80
2022-11-20T02:02:08.516Z,1.70
2022-11-20T02:04:38.662Z,2.20
2022-11-20T02:07:07.649Z,2.30
2022-11-20T02:09:36.275Z,1.87
2022-11-20T02:12:05.396Z,2.00
2022-11-20T02:14:33.077Z,2.23
2022-11-20T02:17:01.779Z,1.90
2022-11-20T02:19:32.266Z,2.13
2022-11-20T02:22:08.884Z,1.63
2022-11-20T02:24:38.957Z,2.10
2022-11-20T02:27:10.301Z,2.17
2022-11-20T02:29:42.985Z,1.90
2022-11-20T02:32:20.235Z,2.10
2022-11-20T02:34:48.976Z,2.20
2022-11-20T02:37:17.878Z,2.10
2022-11-20T02:39:49.015Z,2.00
2022-11-20T02:42:18.017Z,2.20
2022-11-20T02:44:46.583Z,2.00
2022-11-20T02:47:15.268Z,2.27
2022-11-20T02:49:43.891Z,2.10
2022-11-20T02:52:12.497Z,2.10
2022-11-20T02:54:41.060Z,2.30
2022-11-20T02:57:10.986Z,2.83
2022-11-20T02:59:39.569Z,2.50
2022-11-20T03:02:08.183Z,2.67
2022-11-20T03:04:36.846Z,2.30
2022-11-20T03:07:05.961Z,2.90
2022-11-20T03:09:34.596Z,2.30
2022-11-20T03:12:03.216Z,2.30
2022-11-20T03:14:33.448Z,2.37
2022-11-20T03:17:02.028Z,2.50
2022-11-20T03:19:30.655Z,3.40
2022-11-20T03:21:59.210Z,2.97
2022-11-20T03:24:28.140Z,2.90
2022-11-20T03:26:56.759Z,2.70
2022-11-20T03:29:25.445Z,2.70
2022-11-20T03:31:55.343Z,2.80
2022-11-20T03:34:24.146Z,2.73
2022-11-20T03:36:52.772Z,2.70
2022-11-20T03:39:21.732Z,2.90
2022-11-20T03:41:50.531Z,2.53
2022-11-20T03:44:19.106Z,2.50
2022-11-20T03:46:47.696Z,2.00
2022-11-20T03:49:17.840Z,2.70
2022-11-20T03:51:46.461Z,2.50
2022-11-20T03:54:15.100Z,2.50
2022-11-20T03:56:43.738Z,2.67
2022-11-20T03:59:12.682Z,2.33
2022-11-20T04:01:45.480Z,2.57
2022-11-20T04:04:18.210Z,2.30
2022-11-20T04:06:46.769Z,2.20
2022-11-20T04:09:16.685Z,1.90
2022-11-20T04:11:45.337Z,2.47
2022-11-20T04:14:15.916Z,2.13
2022-11-20T04:16:44.680Z,1.93
2022-11-20T04:19:14.834Z,2.00
2022-11-20T04:21:45.788Z,2.20
2022-11-20T04:24:14.362Z,2.10
2022-11-20T04:26:43.015Z,2.10
2022-11-20T04:29:12.999Z,2.00
2022-11-20T04:31:41.566Z,2.30
2022-11-20T04:34:12.552Z,2.13
2022-11-20T04:36:41.141Z,2.13
2022-11-20T04:39:16.247Z,2.40
2022-11-20T04:41:44.926Z,2.07
2022-11-20T04:44:13.587Z,2.20
2022-11-20T04:46:43.835Z,2.10
2022-11-20T04:49:13.661Z,1.93
2022-11-20T04:51:42.332Z,1.60
2022-11-20T04:54:11.687Z,1.70
2022-11-20T04:56:41.639Z,1.90
2022-11-20T04:59:10.259Z,2.20
2022-11-20T05:01:38.877Z,1.90
2022-11-20T05:04:07.888Z,2.10
2022-11-20T05:06:36.484Z,1.80
2022-11-20T05:09:05.238Z,2.10
2022-11-20T05:11:34.003Z,1.80
2022-11-20T05:14:03.992Z,2.20
2022-11-20T05:16:32.744Z,2.00
2022-11-20T05:19:01.338Z,2.07
2022-11-20T05:21:32.236Z,2.00
2022-11-20T05:24:00.805Z,1.83
2022-11-20T05:26:29.353Z,1.97
2022-11-20T05:28:58.018Z,1.70
2022-11-20T05:31:28.546Z,1.90
2022-11-20T05:33:58.379Z,2.00
2022-11-20T05:36:27.178Z,1.70
2022-11-20T05:39:01.217Z,2.30
2022-11-20T05:41:30.713Z,1.80
2022-11-20T05:44:00.002Z,2.03
2022-11-20T05:46:29.999Z,1.80
2022-11-20T05:48:59.434Z,1.93
2022-11-20T05:51:28.372Z,1.70
2022-11-20T05:53:58.472Z,1.67
2022-11-20T05:56:27.132Z,2.17
2022-11-20T05:58:55.685Z,1.50
2022-11-20T06:01:25.426Z,1.70
2022-11-20T06:03:56.187Z,1.60
2022-11-20T06:06:26.092Z,1.60
2022-11-20T06:08:54.684Z,1.60
2022-11-20T06:11:23.265Z,1.67
2022-11-20T06:13:51.914Z,1.67
2022-11-20T06:16:22.700Z,1.90
2022-11-20T06:18:51.346Z,1.50
2022-11-20T06:21:22.956Z,1.40
2022-11-20T06:23:52.515Z,1.47
2022-11-20T06:26:23.007Z,1.30
2022-11-20T06:28:52.175Z,1.60
2022-11-20T06:31:22.383Z,1.40
2022-11-20T06:33:51.834Z,1.53
2022-11-20T06:36:23.704Z,1.37
2022-11-20T06:38:52.321Z,1.80
2022-11-20T06:41:22.678Z,1.50
2022-11-20T06:43:51.896Z,1.37
2022-11-20T06:46:21.124Z,1.40
2022-11-20T06:48:50.451Z,1.70
2022-11-20T06:51:20.805Z,1.70
2022-11-20T06:53:49.509Z,1.57
2022-11-20T06:56:18.195Z,1.67
2022-11-20T06:58:46.762Z,1.70
2022-11-20T07:01:16.689Z,1.77
2022-11-20T07:03:48.028Z,1.90
2022-11-20T07:06:21.344Z,1.60
2022-11-20T07:08:52.446Z,1.80
2022-11-20T07:11:21.064Z,1.93
2022-11-20T07:13:49.652Z,1.53
2022-11-20T07:16:18.465Z,2.00
2022-11-20T07:18:50.487Z,1.53
2022-11-20T07:21:21.032Z,1.50
2022-11-20T07:23:49.624Z,1.80
2022-11-20T07:26:18.238Z,2.03
2022-11-20T07:28:47.306Z,1.97
2022-11-20T07:31:18.972Z,1.70
2022-11-20T07:33:47.953Z,1.50
2022-11-20T07:36:16.546Z,1.70
2022-11-20T07:38:46.510Z,1.60
2022-11-20T07:41:15.072Z,1.70
2022-11-20T07:43:43.706Z,1.50
2022-11-20T07:46:12.286Z,2.20
2022-11-20T07:48:40.845Z,2.10
2022-11-20T07:51:09.594Z,2.00
2022-11-20T07:53:38.147Z,1.93
2022-11-20T07:56:08.834Z,1.57
2022-11-20T07:58:37.475Z,1.90
2022-11-20T08:01:06.883Z,1.40
2022-11-20T08:03:36.075Z,1.53
2022-11-20T08:06:04.859Z,1.50
2022-11-20T08:08:34.263Z,1.40
2022-11-20T08:11:21.452Z,2.00
2022-11-20T08:14:08.733Z,1.50
2022-11-20T08:16:37.340Z,1.30
2022-11-20T08:19:06.752Z,1.70
2022-11-20T08:21:38.343Z,1.50
2022-11-20T08:24:08.193Z,1.87
2022-11-20T08:26:36.984Z,1.50
2022-11-20T08:29:08.259Z,1.60
2022-11-20T08:31:37.215Z,1.70
2022-11-20T08:34:09.237Z,1.87
2022-11-20T08:36:38.927Z,1.57
2022-11-20T08:39:07.534Z,1.70
2022-11-20T08:41:37.655Z,1.60
2022-11-20T08:44:09.009Z,1.73
2022-11-20T08:46:39.522Z,1.33
2022-11-20T08:49:09.438Z,1.30
2022-11-20T08:51:38.581Z,1.83
2022-11-20T08:54:07.673Z,1.73
2022-11-20T08:56:37.292Z,1.63
2022-11-20T08:59:23.422Z,1.50
2022-11-20T09:01:56.071Z,1.63
2022-11-20T09:04:24.683Z,1.50
2022-11-20T09:06:53.406Z,1.50
2022-11-20T09:09:22.304Z,1.20
2022-11-20T09:11:51.869Z,1.20
2022-11-20T09:14:22.252Z,1.83
2022-11-20T09:16:50.830Z,1.43
2022-11-20T09:19:36.025Z,1.77
2022-11-20T09:22:05.182Z,1.30
2022-11-20T09:24:33.954Z,1.50
2022-11-20T09:27:04.986Z,1.60
2022-11-20T09:29:34.968Z,1.30
2022-11-20T09:32:03.718Z,1.20
2022-11-20T09:34:32.382Z,1.00
2022-11-20T09:37:04.482Z,1.03
2022-11-20T09:39:39.611Z,0.90
2022-11-20T09:42:22.225Z,0.90
2022-11-20T09:45:03.497Z,0.77
2022-11-20T09:47:39.239Z,0.90
2022-11-20T09:50:21.800Z,0.90
2022-11-20T09:53:01.691Z,0.70
2022-11-20T09:55:31.418Z,0.90
2022-11-20T09:58:01.214Z,0.90
2022-11-20T10:00:31.360Z,0.80
2022-11-20T10:03:03.359Z,0.80
2022-11-20T10:05:34.261Z,0.90
2022-11-20T10:08:11.533Z,0.77
2022-11-20T10:10:44.237Z,0.73
2022-11-20T10:13:22.694Z,0.77
2022-11-20T10:16:01.344Z,0.70
2022-11-20T10:18:41.661Z,0.70
2022-11-20T10:21:14.221Z,0.80
2022-11-20T10:23:54.087Z,0.97
2022-11-20T10:26:28.715Z,0.80
2022-11-20T10:29:12.754Z,0.70
2022-11-20T10:31:44.140Z,0.77
2022-11-20T10:34:22.989Z,0.70
2022-11-20T10:36:56.374Z,0.70
2022-11-20T10:39:32.385Z,0.70
2022-11-20T10:42:01.812Z,0.80
2022-11-20T10:44:52.549Z,0.80
2022-11-20T10:47:27.748Z,0.90
2022-11-20T10:49:57.876Z,0.70
2022-11-20T10:52:31.373Z,1.00
2022-11-20T10:55:07.512Z,1.10
2022-11-20T10:57:49.206Z,0.80
2022-11-20T11:00:18.500Z,0.90
2022-11-20T11:02:49.819Z,0.90
2022-11-20T11:05:30.129Z,0.97
2022-11-20T11:07:59.576Z,0.90
2022-11-20T11:10:33.977Z,0.80
2022-11-20T11:13:03.163Z,0.80
2022-11-20T11:15:39.652Z,0.80
2022-11-20T11:18:12.377Z,0.80
2022-11-20T11:20:40.973Z,0.90
2022-11-20T11:23:29.065Z,1.10
2022-11-20T11:26:02.531Z,1.00
2022-11-20T11:28:31.312Z,1.03
2022-11-20T11:30:59.899Z,0.97
2022-11-20T11:33:31.023Z,0.90
2022-11-20T11:36:02.006Z,1.30
2022-11-20T11:38:33.071Z,1.37
2022-11-20T11:41:02.057Z,1.00
2022-11-20T11:43:49.799Z,1.27
2022-11-20T11:46:29.896Z,1.07
2022-11-20T11:49:01.926Z,0.97
2022-11-20T11:51:35.308Z,0.90
2022-11-20T11:54:10.464Z,0.70
2022-11-20T11:56:39.107Z,1.00
2022-11-20T11:59:11.859Z,0.97
2022-11-20T12:01:45.148Z,1.00
2022-11-20T12:04:19.596Z,1.00
2022-11-20T12:06:52.406Z,0.97
2022-11-20T12:09:22.677Z,1.00
2022-11-20T12:11:54.786Z,0.97
2022-11-20T12:14:29.354Z,1.00
2022-11-20T12:16:58.601Z,1.00
2022-11-20T12:19:29.860Z,1.30
2022-11-20T12:22:04.963Z,1.30
2022-11-20T12:24:45.243Z,1.40
2022-11-20T12:27:46.431Z,0.77
2022-11-20T12:30:16.723Z,1.10
2022-11-20T12:33:11.826Z,0.90
2022-11-20T12:35:55.101Z,0.77
2022-11-20T12:38:35.962Z,0.83
2022-11-20T12:41:11.922Z,1.00
2022-11-20T12:44:13.511Z,0.80
2022-11-20T12:46:45.160Z,1.17
2022-11-20T12:49:27.567Z,1.20
2022-11-20T12:52:18.526Z,0.90
2022-11-20T12:55:12.133Z,0.87
2022-11-20T12:57:50.312Z,0.70
2022-11-20T13:00:20.858Z,0.97
2022-11-20T13:03:24.584Z,1.00
2022-11-20T13:05:58.147Z,0.80
2022-11-20T13:08:31.691Z,0.90
2022-11-20T13:11:05.564Z,1.10
2022-11-20T13:13:41.795Z,0.80
2022-11-20T13:16:14.611Z,0.90
2022-11-20T13:18:46.101Z,0.93
2022-11-20T13:21:19.910Z,0.70
2022-11-20T13:23:50.191Z,0.80
2022-11-20T13:26:21.571Z,1.10
2022-11-20T13:29:13.337Z,0.80
2022-11-20T13:31:45.585Z,1.17
2022-11-20T13:34:16.429Z,1.40
2022-11-20T13:36:52.680Z,1.00
2022-11-20T13:39:29.158Z,0.80
2022-11-20T13:41:58.543Z,0.83
2022-11-20T13:44:31.153Z,0.80
2022-11-20T13:46:59.795Z,0.80
2022-11-20T13:49:31.081Z,0.80
2022-11-20T13:52:08.438Z,0.83
2022-11-20T13:54:58.190Z,1.23
2022-11-20T13:57:59.442Z,1.23
2022-11-20T14:00:28.348Z,1.97
2022-11-20T14:03:04.797Z,0.93
2022-11-20T14:05:37.348Z,1.00
2022-11-20T14:08:07.431Z,1.73
2022-11-20T14:10:40.104Z,1.43
2022-11-20T14:13:12.948Z,1.37
2022-11-20T14:15:45.201Z,1.00
2022-11-20T14:18:16.110Z,0.90
2022-11-20T14:20:45.260Z,0.93
2022-11-20T14:23:13.908Z,1.00
2022-11-20T14:25:47.101Z,0.90
2022-11-20T14:28:23.829Z,1.20
2022-11-20T14:30:52.491Z,1.10
2022-11-20T14:33:25.704Z,1.13
2022-11-20T14:35:56.002Z,0.80
2022-11-20T14:38:27.240Z,0.80
2022-11-20T14:41:08.199Z,0.87
2022-11-20T14:43:38.675Z,0.80
2022-11-20T14:46:09.579Z,1.37
2022-11-20T14:48:40.853Z,1.20
2022-11-20T14:51:11.389Z,0.80
2022-11-20T14:53:40.027Z,1.30
2022-11-20T14:56:11.333Z,1.00
2022-11-20T14:58:39.906Z,1.00
2022-11-20T15:01:13.696Z,0.80
2022-11-20T15:03:43.176Z,1.00
2022-11-20T15:06:13.956Z,0.90
2022-11-20T15:08:52.738Z,1.10
2022-11-20T15:11:27.880Z,0.97
2022-11-20T15:13:56.483Z,1.03
2022-11-20T15:16:25.998Z,0.80
2022-11-20T15:18:54.703Z,1.00
2022-11-20T15:21:23.636Z,1.23
2022-11-20T15:23:52.948Z,1.13
2022-11-20T15:26:27.357Z,1.07
2022-11-20T15:28:57.139Z,1.00
2022-11-20T15:31:27.415Z,0.90
2022-11-20T15:34:12.822Z,1.00
2022-11-20T15:36:41.917Z,1.20
2022-11-20T15:39:11.926Z,1.33
2022-11-20T15:41:41.884Z,1.10
2022-11-20T15:44:10.509Z,0.80
2022-11-20T15:46:43.243Z,1.23
2022-11-20T15:49:14.473Z,1.20
2022-11-20T15:51:45.214Z,1.20
2022-11-20T15:54:15.005Z,1.00
2022-11-20T15:56:45.140Z,1.33
2022-11-20T15:59:15.456Z,1.40
2022-11-20T16:01:44.541Z,1.10
2022-11-20T16:04:13.981Z,1.27
2022-11-20T16:06:43.052Z,2.43
2022-11-20T16:09:11.834Z,2.80
2022-11-20T16:11:40.751Z,2.13
2022-11-20T16:14:30.608Z,1.80
2022-11-20T16:16:59.214Z,1.77
2022-11-20T16:19:27.864Z,1.47
2022-11-20T16:22:02.301Z,2.00
2022-11-20T16:24:31.912Z,1.77
2022-11-20T16:27:00.561Z,2.00
2022-11-20T16:29:30.535Z,2.10
2022-11-20T16:31:59.148Z,1.90
2022-11-20T16:34:27.976Z,1.90
2022-11-20T16:36:57.160Z,2.00
2022-11-20T16:39:27.147Z,2.20
2022-11-20T16:41:55.770Z,2.27
2022-11-20T16:44:24.631Z,1.80
2022-11-20T16:46:54.908Z,1.80
2022-11-20T16:49:23.533Z,1.70
2022-11-20T16:51:52.227Z,1.80
2022-11-20T16:54:21.599Z,2.13
2022-11-20T16:56:51.837Z,1.90
2022-11-20T16:59:20.951Z,2.13
2022-11-20T17:01:49.945Z,2.20
2022-11-20T17:04:20.083Z,2.20
2022-11-20T17:06:48.772Z,2.10
2022-11-20T17:09:17.421Z,1.83
2022-11-20T17:11:46.084Z,2.20
2022-11-20T17:14:14.776Z,2.03
2022-11-20T17:16:43.412Z,2.20
2022-11-20T17:19:12.086Z,2.20
2022-11-20T17:21:42.521Z,2.30
2022-11-20T17:24:12.460Z,2.57
2022-11-20T17:26:42.148Z,2.70
2022-11-20T17:29:12.845Z,2.13
2022-11-20T17:31:42.015Z,2.03
2022-11-20T17:34:12.922Z,1.80
2022-11-20T17:36:45.659Z,2.20
2022-11-20T17:39:15.774Z,2.20
2022-11-20T17:41:44.696Z,2.60
2022-11-20T17:44:13.947Z,2.50
2022-11-20T17:46:42.585Z,2.00
2022-11-20T17:49:11.212Z,2.47
2022-11-20T17:51:40.678Z,1.87
2022-11-20T17:54:12.035Z,2.10
2022-11-20T17:56:58.104Z,2.00
2022-11-20T17:59:26.686Z,2.10
2022-11-20T18:01:57.632Z,2.27
2022-11-20T18:04:29.542Z,1.90
2022-11-20T18:06:58.180Z,1.73
2022-11-20T18:09:28.416Z,2.03
2022-11-20T18:11:57.209Z,2.00
2022-11-20T18:14:32.458Z,1.50
2022-11-20T18:17:03.102Z,2.23
2022-11-20T18:19:37.611Z,1.70
2022-11-20T18:22:09.792Z,2.10
2022-11-20T18:24:40.087Z,2.03
2022-11-20T18:27:10.132Z,2.20
2022-11-20T18:29:38.842Z,1.40
2022-11-20T18:32:07.550Z,1.13
2022-11-20T18:34:36.182Z,1.13
2022-11-20T18:37:04.865Z,1.53
2022-11-20T18:39:33.709Z,1.70
2022-11-20T18:42:21.306Z,1.20
2022-11-20T18:44:53.595Z,1.40
2022-11-20T18:47:24.910Z,1.60
2022-11-20T18:49:57.032Z,1.30
2022-11-20T18:52:27.301Z,2.10
2022-11-20T18:54:56.537Z,2.10
2022-11-20T18:57:28.416Z,2.33
2022-11-20T19:00:02.164Z,3.00
2022-11-20T19:02:40.553Z,2.20
2022-11-20T19:05:10.654Z,1.70
2022-11-20T19:07:39.384Z,1.63
2022-11-20T19:10:08.669Z,1.67
2022-11-20T19:12:38.678Z,1.50
2022-11-20T19:15:08.278Z,1.40
2022-11-20T19:17:36.947Z,0.90
2022-11-20T19:20:06.267Z,1.07
2022-11-20T19:22:34.966Z,1.30
2022-11-20T19:25:03.611Z,1.30
2022-11-20T19:27:32.214Z,1.17
2022-11-20T19:30:03.275Z,1.40
2022-11-20T19:32:32.465Z,1.20
2022-11-20T19:35:01.142Z,1.43
2022-11-20T19:37:29.730Z,1.30
2022-11-20T19:39:59.689Z,1.00
2022-11-20T19:42:28.478Z,1.30
2022-11-20T19:44:58.183Z,1.00
2022-11-20T19:47:52.789Z,1.03
2022-11-20T19:50:18.025Z,0.90
2022-11-20T19:52:46.649Z,1.57
2022-11-20T19:55:15.257Z,1.10
2022-11-20T19:57:43.916Z,1.27
2022-11-20T20:00:17.231Z,0.83
2022-11-20T20:02:52.075Z,0.77
2022-11-20T20:05:20.723Z,0.80
2022-11-20T20:07:49.455Z,1.47
2022-11-20T20:10:20.261Z,0.73
2022-11-20T20:12:48.853Z,0.70
2022-11-20T20:15:17.634Z,0.70
2022-11-20T20:17:46.246Z,0.80
2022-11-20T20:20:16.342Z,0.90
2022-11-20T20:22:44.979Z,0.80
2022-11-20T20:25:14.181Z,0.80
2022-11-20T20:27:42.795Z,1.00
2022-11-20T20:30:12.627Z,0.83
2022-11-20T20:32:41.268Z,0.60
2022-11-20T20:35:10.505Z,0.70
2022-11-20T20:37:40.497Z,0.70
2022-11-20T20:40:14.863Z,0.70
2022-11-20T20:42:44.074Z,0.60
2022-11-20T20:45:12.682Z,0.60
2022-11-20T20:47:42.225Z,0.60
2022-11-20T20:50:12.263Z,0.70
2022-11-20T20:52:42.379Z,0.80
2022-11-20T20:55:11.642Z,0.70
2022-11-20T20:57:40.363Z,0.60
2022-11-20T21:00:10.282Z,0.63
2022-11-20T21:02:38.968Z,0.70
2022-11-20T21:05:08.151Z,0.63
2022-11-20T21:07:57.144Z,0.70
2022-11-20T21:10:27.228Z,0.70
2022-11-20T21:12:55.886Z,0.60
2022-11-20T21:15:24.508Z,0.60
2022-11-20T21:17:53.144Z,0.60
2022-11-20T21:20:39.266Z,0.60
2022-11-20T21:23:10.231Z,0.60
2022-11-20T21:25:41.156Z,0.60
2022-11-20T21:28:14.245Z,0.60
2022-11-20T21:30:45.682Z,0.60
2022-11-20T21:33:14.442Z,0.70
2022-11-20T21:35:43.046Z,0.60
2022-11-20T21:38:11.737Z,0.60
2022-11-20T21:40:41.789Z,0.60
2022-11-20T21:43:10.435Z,0.97
2022-11-20T21:45:39.044Z,0.70
2022-11-20T21:48:07.698Z,0.60
2022-11-20T21:50:36.399Z,0.70
2022-11-20T21:53:05.020Z,0.60
2022-11-20T21:55:33.643Z,0.50
2022-11-20T21:58:03.564Z,0.80
2022-11-20T22:00:32.139Z,0.63
2022-11-20T22:03:01.416Z,0.77
2022-11-20T22:05:30.001Z,0.70
2022-11-20T22:07:58.618Z,0.70
2022-11-20T22:10:27.935Z,0.77
2022-11-20T22:13:17.053Z,0.57
2022-11-20T22:16:00.287Z,0.60
2022-11-20T22:18:29.748Z,0.80
2022-11-20T22:20:58.445Z,0.60
2022-11-20T22:23:27.076Z,0.60
2022-11-20T22:25:55.647Z,0.70
2022-11-20T22:28:24.261Z,0.70
2022-11-20T22:30:54.219Z,0.70
2022-11-20T22:33:23.020Z,1.00
2022-11-20T22:35:51.793Z,0.60
2022-11-20T22:38:20.441Z,0.60
2022-11-20T22:40:49.059Z,0.60
2022-11-20T22:43:17.724Z,0.83
2022-11-20T22:45:46.647Z,0.70
2022-11-20T22:48:16.663Z,1.20
2022-11-20T22:50:45.307Z,0.70
2022-11-20T22:53:13.939Z,0.70
2022-11-20T22:55:42.530Z,0.60
2022-11-20T22:58:11.093Z,0.90
2022-11-20T23:00:39.699Z,0.60
2022-11-20T23:03:08.351Z,0.70
2022-11-20T23:05:38.352Z,0.50
2022-11-20T23:08:07.084Z,0.50
2022-11-20T23:10:35.730Z,0.60
2022-11-20T23:13:04.403Z,0.60
2022-11-20T23:15:34.471Z,0.70
2022-11-20T23:18:03.123Z,0.90
2022-11-20T23:20:31.713Z,0.80
2022-11-20T23:23:01.697Z,0.60
2022-11-20T23:25:30.415Z,0.50
2022-11-20T23:27:59.003Z,0.50
2022-11-20T23:30:27.582Z,0.60
2022-11-20T23:32:56.202Z,0.50
2022-11-20T23:35:24.848Z,0.53
2022-11-20T23:37:53.475Z,0.60
2022-11-20T23:40:23.521Z,0.50
2022-11-20T23:43:09.991Z,0.60
2022-11-20T23:45:39.623Z,0.90
2022-11-20T23:48:08.724Z,0.70
2022-11-20T23:50:37.636Z,0.50
2022-11-20T23:53:06.455Z,0.90
2022-11-20T23:55:36.653Z,0.83
2022-11-20T23:58:05.637Z,0.70
